sensor_id;sensor_type;location;lat;lon;timestamp;P1;durP1;ratioP1;P2;durP2;ratioP2
67747;SDS011;54543;50.712;6.070;2023-07-29T00:01:40;1.75;;;1.42;;
67747;SDS011;54543;50.712;6.070;2023-07-29T00:04:06;5.75;;;1.33;;
67747;SDS011;54543;50.712;6.070;2023-07-29T00:06:34;2.20;;;1.60;;
67747;SDS011;54543;50.712;6.070;2023-07-29T00:09:00;1.30;;;1.20;;
67747;SDS011;54543;50.712;6.070;2023-07-29T00:11:26;1.40;;;1.30;;
67747;SDS011;54543;50.712;6.070;2023-07-29T00:13:52;2.47;;;1.73;;
67747;SDS011;54543;50.712;6.070;2023-07-29T00:16:17;1.88;;;1.35;;
67747;SDS011;54543;50.712;6.070;2023-07-29T00:18:46;1.38;;;1.20;;
67747;SDS011;54543;50.712;6.070;2023-07-29T00:21:11;1.40;;;1.30;;
67747;SDS011;54543;50.712;6.070;2023-07-29T00:23:37;1.10;;;1.00;;
67747;SDS011;54543;50.712;6.070;2023-07-29T00:26:02;2.45;;;1.33;;
67747;SDS011;54543;50.712;6.070;2023-07-29T00:28:28;1.50;;;1.20;;
67747;SDS011;54543;50.712;6.070;2023-07-29T00:30:54;2.03;;;1.38;;
67747;SDS011;54543;50.712;6.070;2023-07-29T00:33:19;1.35;;;1.08;;
67747;SDS011;54543;50.712;6.070;2023-07-29T00:35:45;1.65;;;1.55;;
67747;SDS011;54543;50.712;6.070;2023-07-29T00:38:11;4.15;;;2.42;;
67747;SDS011;54543;50.712;6.070;2023-07-29T00:40:36;1.65;;;1.40;;
67747;SDS011;54543;50.712;6.070;2023-07-29T00:43:02;1.85;;;1.40;;
67747;SDS011;54543;50.712;6.070;2023-07-29T00:45:29;2.15;;;1.40;;
67747;SDS011;54543;50.712;6.070;2023-07-29T00:47:55;1.42;;;1.10;;
67747;SDS011;54543;50.712;6.070;2023-07-29T00:50:21;1.83;;;1.08;;
67747;SDS011;54543;50.712;6.070;2023-07-29T00:52:48;2.72;;;1.55;;
67747;SDS011;54543;50.712;6.070;2023-07-29T00:55:15;2.50;;;1.00;;
67747;SDS011;54543;50.712;6.070;2023-07-29T00:57:41;2.28;;;1.00;;
67747;SDS011;54543;50.712;6.070;2023-07-29T01:00:07;1.10;;;1.00;;
67747;SDS011;54543;50.712;6.070;2023-07-29T01:02:34;1.25;;;0.82;;
67747;SDS011;54543;50.712;6.070;2023-07-29T01:05:00;2.05;;;1.42;;
67747;SDS011;54543;50.712;6.070;2023-07-29T01:07:38;1.45;;;1.00;;
67747;SDS011;54543;50.712;6.070;2023-07-29T01:12:51;0.93;;;0.88;;
67747;SDS011;54543;50.712;6.070;2023-07-29T01:16:21;1.45;;;1.00;;
67747;SDS011;54543;50.712;6.070;2023-07-29T01:18:35;0.70;;;0.70;;
67747;SDS011;54543;50.712;6.070;2023-07-29T01:21:03;0.93;;;0.68;;
67747;SDS011;54543;50.712;6.070;2023-07-29T01:23:32;0.88;;;0.80;;
67747;SDS011;54543;50.712;6.070;2023-07-29T01:25:59;1.15;;;0.70;;
67747;SDS011;54543;50.712;6.070;2023-07-29T01:28:25;0.75;;;0.75;;
67747;SDS011;54543;50.712;6.070;2023-07-29T01:30:52;1.75;;;0.70;;
67747;SDS011;54543;50.712;6.070;2023-07-29T01:33:39;2.00;;;0.90;;
67747;SDS011;54543;50.712;6.070;2023-07-29T01:36:10;1.80;;;1.30;;
67747;SDS011;54543;50.712;6.070;2023-07-29T01:38:40;1.70;;;0.80;;
67747;SDS011;54543;50.712;6.070;2023-07-29T01:41:07;3.72;;;1.38;;
67747;SDS011;54543;50.712;6.070;2023-07-29T01:43:34;0.75;;;0.70;;
67747;SDS011;54543;50.712;6.070;2023-07-29T01:46:05;1.15;;;0.80;;
67747;SDS011;54543;50.712;6.070;2023-07-29T01:48:30;0.68;;;0.60;;
67747;SDS011;54543;50.712;6.070;2023-07-29T01:50:57;3.20;;;0.70;;
67747;SDS011;54543;50.712;6.070;2023-07-29T01:53:22;1.30;;;0.68;;
67747;SDS011;54543;50.712;6.070;2023-07-29T01:55:48;0.70;;;0.70;;
67747;SDS011;54543;50.712;6.070;2023-07-29T01:58:14;0.95;;;0.73;;
67747;SDS011;54543;50.712;6.070;2023-07-29T02:00:40;0.40;;;0.40;;
67747;SDS011;54543;50.712;6.070;2023-07-29T02:03:05;0.98;;;0.60;;
67747;SDS011;54543;50.712;6.070;2023-07-29T02:05:31;0.65;;;0.60;;
67747;SDS011;54543;50.712;6.070;2023-07-29T02:07:56;0.93;;;0.60;;
67747;SDS011;54543;50.712;6.070;2023-07-29T02:10:22;1.17;;;0.77;;
67747;SDS011;54543;50.712;6.070;2023-07-29T02:12:48;2.13;;;0.95;;
67747;SDS011;54543;50.712;6.070;2023-07-29T02:15:13;0.55;;;0.55;;
67747;SDS011;54543;50.712;6.070;2023-07-29T02:17:40;1.38;;;0.95;;
67747;SDS011;54543;50.712;6.070;2023-07-29T02:20:07;1.05;;;0.60;;
67747;SDS011;54543;50.712;6.070;2023-07-29T02:22:33;1.05;;;0.70;;
67747;SDS011;54543;50.712;6.070;2023-07-29T02:24:59;1.15;;;0.75;;
67747;SDS011;54543;50.712;6.070;2023-07-29T02:27:26;1.60;;;0.80;;
67747;SDS011;54543;50.712;6.070;2023-07-29T02:29:52;2.47;;;0.90;;
67747;SDS011;54543;50.712;6.070;2023-07-29T02:32:18;1.00;;;0.73;;
67747;SDS011;54543;50.712;6.070;2023-07-29T02:34:44;1.95;;;1.10;;
67747;SDS011;54543;50.712;6.070;2023-07-29T02:37:10;1.25;;;0.90;;
67747;SDS011;54543;50.712;6.070;2023-07-29T02:39:36;1.45;;;0.93;;
67747;SDS011;54543;50.712;6.070;2023-07-29T02:42:02;1.00;;;0.90;;
67747;SDS011;54543;50.712;6.070;2023-07-29T02:44:28;0.80;;;0.68;;
67747;SDS011;54543;50.712;6.070;2023-07-29T02:46:54;1.40;;;0.90;;
67747;SDS011;54543;50.712;6.070;2023-07-29T02:49:21;1.60;;;1.00;;
67747;SDS011;54543;50.712;6.070;2023-07-29T02:51:49;2.47;;;1.00;;
67747;SDS011;54543;50.712;6.070;2023-07-29T02:54:15;1.98;;;1.05;;
67747;SDS011;54543;50.712;6.070;2023-07-29T02:56:41;3.15;;;1.02;;
67747;SDS011;54543;50.712;6.070;2023-07-29T02:59:06;1.55;;;0.70;;
67747;SDS011;54543;50.712;6.070;2023-07-29T03:01:32;1.17;;;0.95;;
67747;SDS011;54543;50.712;6.070;2023-07-29T03:03:57;1.20;;;1.00;;
67747;SDS011;54543;50.712;6.070;2023-07-29T03:06:23;1.33;;;1.00;;
67747;SDS011;54543;50.712;6.070;2023-07-29T03:08:48;1.42;;;1.00;;
67747;SDS011;54543;50.712;6.070;2023-07-29T03:11:15;1.83;;;1.05;;
67747;SDS011;54543;50.712;6.070;2023-07-29T03:13:41;1.20;;;0.85;;
67747;SDS011;54543;50.712;6.070;2023-07-29T03:16:11;3.80;;;1.52;;
67747;SDS011;54543;50.712;6.070;2023-07-29T03:18:37;1.63;;;0.90;;
67747;SDS011;54543;50.712;6.070;2023-07-29T03:21:04;1.33;;;1.05;;
67747;SDS011;54543;50.712;6.070;2023-07-29T03:23:29;0.95;;;0.88;;
67747;SDS011;54543;50.712;6.070;2023-07-29T03:25:56;1.35;;;1.20;;
67747;SDS011;54543;50.712;6.070;2023-07-29T03:28:26;1.65;;;1.30;;
67747;SDS011;54543;50.712;6.070;2023-07-29T03:30:54;1.17;;;1.00;;
67747;SDS011;54543;50.712;6.070;2023-07-29T03:33:20;1.27;;;1.10;;
67747;SDS011;54543;50.712;6.070;2023-07-29T03:35:46;2.15;;;1.20;;
67747;SDS011;54543;50.712;6.070;2023-07-29T03:38:12;1.40;;;1.00;;
67747;SDS011;54543;50.712;6.070;2023-07-29T03:40:38;2.15;;;1.20;;
67747;SDS011;54543;50.712;6.070;2023-07-29T03:43:05;1.27;;;1.05;;
67747;SDS011;54543;50.712;6.070;2023-07-29T03:45:30;2.38;;;1.10;;
67747;SDS011;54543;50.712;6.070;2023-07-29T03:47:56;2.45;;;0.88;;
67747;SDS011;54543;50.712;6.070;2023-07-29T03:50:22;1.35;;;1.13;;
67747;SDS011;54543;50.712;6.070;2023-07-29T03:52:48;1.58;;;1.05;;
67747;SDS011;54543;50.712;6.070;2023-07-29T03:55:13;3.30;;;1.40;;
67747;SDS011;54543;50.712;6.070;2023-07-29T03:57:39;1.23;;;1.00;;
67747;SDS011;54543;50.712;6.070;2023-07-29T04:00:04;1.63;;;1.17;;
67747;SDS011;54543;50.712;6.070;2023-07-29T04:02:31;1.60;;;1.10;;
67747;SDS011;54543;50.712;6.070;2023-07-29T04:04:56;1.23;;;1.00;;
67747;SDS011;54543;50.712;6.070;2023-07-29T04:07:22;1.42;;;1.20;;
67747;SDS011;54543;50.712;6.070;2023-07-29T04:09:48;1.65;;;1.17;;
67747;SDS011;54543;50.712;6.070;2023-07-29T04:12:14;1.20;;;1.10;;
67747;SDS011;54543;50.712;6.070;2023-07-29T04:14:40;1.60;;;1.17;;
67747;SDS011;54543;50.712;6.070;2023-07-29T04:17:07;3.72;;;2.05;;
67747;SDS011;54543;50.712;6.070;2023-07-29T04:19:32;2.85;;;1.60;;
67747;SDS011;54543;50.712;6.070;2023-07-29T04:21:58;3.40;;;2.40;;
67747;SDS011;54543;50.712;6.070;2023-07-29T04:24:24;4.10;;;2.65;;
67747;SDS011;54543;50.712;6.070;2023-07-29T04:26:49;3.60;;;2.60;;
67747;SDS011;54543;50.712;6.070;2023-07-29T04:29:15;3.85;;;2.38;;
67747;SDS011;54543;50.712;6.070;2023-07-29T04:31:40;7.72;;;5.78;;
67747;SDS011;54543;50.712;6.070;2023-07-29T04:34:07;5.20;;;3.55;;
67747;SDS011;54543;50.712;6.070;2023-07-29T04:36:33;4.38;;;3.10;;
67747;SDS011;54543;50.712;6.070;2023-07-29T04:38:58;3.88;;;2.78;;
67747;SDS011;54543;50.712;6.070;2023-07-29T04:41:24;4.07;;;2.97;;
67747;SDS011;54543;50.712;6.070;2023-07-29T04:43:50;4.43;;;2.92;;
67747;SDS011;54543;50.712;6.070;2023-07-29T04:46:16;3.10;;;2.40;;
67747;SDS011;54543;50.712;6.070;2023-07-29T04:48:41;4.43;;;2.70;;
67747;SDS011;54543;50.712;6.070;2023-07-29T04:51:08;6.03;;;3.20;;
67747;SDS011;54543;50.712;6.070;2023-07-29T04:53:33;4.45;;;2.83;;
67747;SDS011;54543;50.712;6.070;2023-07-29T04:56:02;5.97;;;2.70;;
67747;SDS011;54543;50.712;6.070;2023-07-29T04:58:28;3.47;;;2.25;;
67747;SDS011;54543;50.712;6.070;2023-07-29T05:00:55;3.47;;;2.50;;
67747;SDS011;54543;50.712;6.070;2023-07-29T05:03:21;4.88;;;2.80;;
67747;SDS011;54543;50.712;6.070;2023-07-29T05:05:47;5.68;;;3.15;;
67747;SDS011;54543;50.712;6.070;2023-07-29T05:08:14;4.03;;;2.63;;
67747;SDS011;54543;50.712;6.070;2023-07-29T05:10:40;3.90;;;2.83;;
67747;SDS011;54543;50.712;6.070;2023-07-29T05:13:06;5.22;;;3.08;;
67747;SDS011;54543;50.712;6.070;2023-07-29T05:15:32;6.15;;;4.22;;
67747;SDS011;54543;50.712;6.070;2023-07-29T05:17:57;5.00;;;3.70;;
67747;SDS011;54543;50.712;6.070;2023-07-29T05:20:23;4.55;;;2.67;;
67747;SDS011;54543;50.712;6.070;2023-07-29T05:22:48;4.35;;;2.70;;
67747;SDS011;54543;50.712;6.070;2023-07-29T05:25:14;4.20;;;2.90;;
67747;SDS011;54543;50.712;6.070;2023-07-29T05:27:39;3.55;;;2.50;;
67747;SDS011;54543;50.712;6.070;2023-07-29T05:30:05;3.20;;;2.45;;
67747;SDS011;54543;50.712;6.070;2023-07-29T05:32:32;3.88;;;2.10;;
67747;SDS011;54543;50.712;6.070;2023-07-29T05:35:00;3.20;;;2.28;;
67747;SDS011;54543;50.712;6.070;2023-07-29T05:37:27;4.25;;;2.95;;
67747;SDS011;54543;50.712;6.070;2023-07-29T05:39:53;3.50;;;2.20;;
67747;SDS011;54543;50.712;6.070;2023-07-29T05:42:18;4.00;;;2.78;;
67747;SDS011;54543;50.712;6.070;2023-07-29T05:44:44;5.38;;;2.97;;
67747;SDS011;54543;50.712;6.070;2023-07-29T05:47:10;4.20;;;2.40;;
67747;SDS011;54543;50.712;6.070;2023-07-29T05:49:37;3.70;;;2.25;;
67747;SDS011;54543;50.712;6.070;2023-07-29T05:52:02;3.50;;;2.33;;
67747;SDS011;54543;50.712;6.070;2023-07-29T05:54:28;3.97;;;2.65;;
67747;SDS011;54543;50.712;6.070;2023-07-29T05:56:53;3.58;;;2.10;;
67747;SDS011;54543;50.712;6.070;2023-07-29T05:59:19;3.42;;;2.20;;
67747;SDS011;54543;50.712;6.070;2023-07-29T06:01:44;2.33;;;1.92;;
67747;SDS011;54543;50.712;6.070;2023-07-29T06:04:10;2.80;;;2.20;;
67747;SDS011;54543;50.712;6.070;2023-07-29T06:06:36;2.83;;;1.98;;
67747;SDS011;54543;50.712;6.070;2023-07-29T06:09:01;3.30;;;2.28;;
67747;SDS011;54543;50.712;6.070;2023-07-29T06:11:28;3.83;;;2.50;;
67747;SDS011;54543;50.712;6.070;2023-07-29T06:13:53;3.72;;;2.60;;
67747;SDS011;54543;50.712;6.070;2023-07-29T06:16:19;3.13;;;2.30;;
67747;SDS011;54543;50.712;6.070;2023-07-29T06:18:45;4.65;;;2.10;;
67747;SDS011;54543;50.712;6.070;2023-07-29T06:21:10;3.45;;;2.30;;
67747;SDS011;54543;50.712;6.070;2023-07-29T06:23:43;4.40;;;2.35;;
67747;SDS011;54543;50.712;6.070;2023-07-29T06:26:09;3.17;;;2.20;;
67747;SDS011;54543;50.712;6.070;2023-07-29T06:28:34;2.47;;;1.85;;
67747;SDS011;54543;50.712;6.070;2023-07-29T06:31:01;3.97;;;2.10;;
67747;SDS011;54543;50.712;6.070;2023-07-29T06:33:26;3.75;;;2.28;;
67747;SDS011;54543;50.712;6.070;2023-07-29T06:35:52;2.95;;;1.75;;
67747;SDS011;54543;50.712;6.070;2023-07-29T06:38:17;3.25;;;2.15;;
67747;SDS011;54543;50.712;6.070;2023-07-29T06:40:48;3.25;;;1.90;;
67747;SDS011;54543;50.712;6.070;2023-07-29T06:43:14;3.53;;;2.10;;
67747;SDS011;54543;50.712;6.070;2023-07-29T06:45:40;2.80;;;1.83;;
67747;SDS011;54543;50.712;6.070;2023-07-29T06:48:06;3.08;;;2.03;;
67747;SDS011;54543;50.712;6.070;2023-07-29T06:50:33;3.45;;;2.05;;
67747;SDS011;54543;50.712;6.070;2023-07-29T06:52:58;2.45;;;1.80;;
67747;SDS011;54543;50.712;6.070;2023-07-29T06:55:24;2.70;;;1.80;;
67747;SDS011;54543;50.712;6.070;2023-07-29T06:57:50;3.35;;;1.88;;
67747;SDS011;54543;50.712;6.070;2023-07-29T07:00:16;2.65;;;2.00;;
67747;SDS011;54543;50.712;6.070;2023-07-29T07:02:41;2.33;;;1.80;;
67747;SDS011;54543;50.712;6.070;2023-07-29T07:05:07;2.78;;;1.95;;
67747;SDS011;54543;50.712;6.070;2023-07-29T07:07:33;2.83;;;1.80;;
67747;SDS011;54543;50.712;6.070;2023-07-29T07:09:58;3.40;;;1.88;;
67747;SDS011;54543;50.712;6.070;2023-07-29T07:12:24;2.53;;;1.85;;
67747;SDS011;54543;50.712;6.070;2023-07-29T07:14:49;1.90;;;1.50;;
67747;SDS011;54543;50.712;6.070;2023-07-29T07:17:15;2.45;;;1.75;;
67747;SDS011;54543;50.712;6.070;2023-07-29T07:19:40;3.67;;;2.00;;
67747;SDS011;54543;50.712;6.070;2023-07-29T07:22:07;2.30;;;1.70;;
67747;SDS011;54543;50.712;6.070;2023-07-29T07:24:32;2.03;;;1.50;;
67747;SDS011;54543;50.712;6.070;2023-07-29T07:26:58;2.60;;;1.70;;
67747;SDS011;54543;50.712;6.070;2023-07-29T07:29:23;2.40;;;1.65;;
67747;SDS011;54543;50.712;6.070;2023-07-29T07:31:52;2.00;;;1.63;;
67747;SDS011;54543;50.712;6.070;2023-07-29T07:34:22;2.80;;;1.60;;
67747;SDS011;54543;50.712;6.070;2023-07-29T07:36:48;2.55;;;1.77;;
67747;SDS011;54543;50.712;6.070;2023-07-29T07:39:14;2.42;;;1.90;;
67747;SDS011;54543;50.712;6.070;2023-07-29T07:41:40;4.18;;;2.90;;
67747;SDS011;54543;50.712;6.070;2023-07-29T07:44:06;2.88;;;1.90;;
67747;SDS011;54543;50.712;6.070;2023-07-29T07:46:32;2.55;;;1.70;;
67747;SDS011;54543;50.712;6.070;2023-07-29T07:48:57;3.60;;;1.92;;
67747;SDS011;54543;50.712;6.070;2023-07-29T07:51:23;3.65;;;1.80;;
67747;SDS011;54543;50.712;6.070;2023-07-29T07:53:48;2.35;;;1.67;;
67747;SDS011;54543;50.712;6.070;2023-07-29T07:56:14;2.22;;;1.75;;
67747;SDS011;54543;50.712;6.070;2023-07-29T07:58:40;3.20;;;1.77;;
67747;SDS011;54543;50.712;6.070;2023-07-29T08:01:06;4.05;;;2.78;;
67747;SDS011;54543;50.712;6.070;2023-07-29T08:03:33;5.00;;;2.72;;
67747;SDS011;54543;50.712;6.070;2023-07-29T08:05:59;6.43;;;4.90;;
67747;SDS011;54543;50.712;6.070;2023-07-29T08:08:25;5.47;;;3.40;;
67747;SDS011;54543;50.712;6.070;2023-07-29T08:10:54;4.03;;;2.60;;
67747;SDS011;54543;50.712;6.070;2023-07-29T08:13:24;7.60;;;6.15;;
67747;SDS011;54543;50.712;6.070;2023-07-29T08:15:50;4.18;;;3.00;;
67747;SDS011;54543;50.712;6.070;2023-07-29T08:18:16;6.35;;;3.15;;
67747;SDS011;54543;50.712;6.070;2023-07-29T08:20:52;4.75;;;3.13;;
67747;SDS011;54543;50.712;6.070;2023-07-29T08:23:19;3.75;;;2.45;;
67747;SDS011;54543;50.712;6.070;2023-07-29T08:25:45;3.40;;;2.15;;
67747;SDS011;54543;50.712;6.070;2023-07-29T08:28:14;2.70;;;2.03;;
67747;SDS011;54543;50.712;6.070;2023-07-29T08:30:40;2.83;;;2.00;;
67747;SDS011;54543;50.712;6.070;2023-07-29T08:33:05;5.43;;;3.20;;
67747;SDS011;54543;50.712;6.070;2023-07-29T08:35:31;7.45;;;4.32;;
67747;SDS011;54543;50.712;6.070;2023-07-29T08:37:56;6.60;;;4.13;;
67747;SDS011;54543;50.712;6.070;2023-07-29T08:40:23;4.28;;;2.70;;
67747;SDS011;54543;50.712;6.070;2023-07-29T08:42:52;9.63;;;5.55;;
67747;SDS011;54543;50.712;6.070;2023-07-29T08:45:20;12.95;;;5.63;;
67747;SDS011;54543;50.712;6.070;2023-07-29T08:47:46;12.70;;;5.95;;
67747;SDS011;54543;50.712;6.070;2023-07-29T08:50:13;6.40;;;3.47;;
67747;SDS011;54543;50.712;6.070;2023-07-29T08:52:40;3.00;;;2.10;;
67747;SDS011;54543;50.712;6.070;2023-07-29T08:55:07;3.90;;;1.98;;
67747;SDS011;54543;50.712;6.070;2023-07-29T08:57:33;2.33;;;1.70;;
67747;SDS011;54543;50.712;6.070;2023-07-29T08:59:59;2.78;;;1.92;;
67747;SDS011;54543;50.712;6.070;2023-07-29T09:02:26;8.65;;;4.25;;
67747;SDS011;54543;50.712;6.070;2023-07-29T09:04:52;3.97;;;2.30;;
67747;SDS011;54543;50.712;6.070;2023-07-29T09:07:17;3.03;;;1.90;;
67747;SDS011;54543;50.712;6.070;2023-07-29T09:09:43;2.05;;;1.58;;
67747;SDS011;54543;50.712;6.070;2023-07-29T09:12:09;5.22;;;3.13;;
67747;SDS011;54543;50.712;6.070;2023-07-29T09:14:36;2.45;;;1.75;;
67747;SDS011;54543;50.712;6.070;2023-07-29T09:17:02;2.33;;;1.60;;
67747;SDS011;54543;50.712;6.070;2023-07-29T09:19:27;2.28;;;1.60;;
67747;SDS011;54543;50.712;6.070;2023-07-29T09:21:53;2.05;;;1.30;;
67747;SDS011;54543;50.712;6.070;2023-07-29T09:24:18;2.22;;;1.45;;
67747;SDS011;54543;50.712;6.070;2023-07-29T09:26:49;2.08;;;1.38;;
67747;SDS011;54543;50.712;6.070;2023-07-29T09:29:15;3.95;;;1.33;;
67747;SDS011;54543;50.712;6.070;2023-07-29T09:31:46;2.00;;;1.42;;
67747;SDS011;54543;50.712;6.070;2023-07-29T09:34:12;1.77;;;1.30;;
67747;SDS011;54543;50.712;6.070;2023-07-29T09:36:40;1.92;;;1.40;;
67747;SDS011;54543;50.712;6.070;2023-07-29T09:39:10;2.50;;;1.60;;
67747;SDS011;54543;50.712;6.070;2023-07-29T09:41:37;2.17;;;1.40;;
67747;SDS011;54543;50.712;6.070;2023-07-29T09:44:03;2.42;;;1.45;;
67747;SDS011;54543;50.712;6.070;2023-07-29T09:46:33;2.00;;;1.27;;
67747;SDS011;54543;50.712;6.070;2023-07-29T09:49:00;2.22;;;1.30;;
67747;SDS011;54543;50.712;6.070;2023-07-29T09:51:27;2.80;;;1.50;;
67747;SDS011;54543;50.712;6.070;2023-07-29T09:53:53;3.40;;;1.90;;
67747;SDS011;54543;50.712;6.070;2023-07-29T09:56:18;2.00;;;1.30;;
67747;SDS011;54543;50.712;6.070;2023-07-29T09:58:52;2.45;;;1.58;;
67747;SDS011;54543;50.712;6.070;2023-07-29T10:01:20;1.38;;;1.10;;
67747;SDS011;54543;50.712;6.070;2023-07-29T10:03:45;3.03;;;2.08;;
67747;SDS011;54543;50.712;6.070;2023-07-29T10:06:12;5.40;;;2.83;;
67747;SDS011;54543;50.712;6.070;2023-07-29T10:08:39;3.63;;;2.03;;
67747;SDS011;54543;50.712;6.070;2023-07-29T10:11:06;2.55;;;1.83;;
67747;SDS011;54543;50.712;6.070;2023-07-29T10:13:33;3.17;;;1.85;;
67747;SDS011;54543;50.712;6.070;2023-07-29T10:15:59;6.97;;;4.07;;
67747;SDS011;54543;50.712;6.070;2023-07-29T10:18:27;4.18;;;2.47;;
67747;SDS011;54543;50.712;6.070;2023-07-29T10:20:53;9.77;;;4.82;;
67747;SDS011;54543;50.712;6.070;2023-07-29T10:23:21;8.52;;;4.43;;
67747;SDS011;54543;50.712;6.070;2023-07-29T10:25:52;5.90;;;3.58;;
67747;SDS011;54543;50.712;6.070;2023-07-29T10:30:50;5.15;;;3.28;;
67747;SDS011;54543;50.712;6.070;2023-07-29T10:33:17;5.75;;;3.80;;
67747;SDS011;54543;50.712;6.070;2023-07-29T10:35:42;7.00;;;4.75;;
67747;SDS011;54543;50.712;6.070;2023-07-29T10:38:08;6.07;;;3.60;;
67747;SDS011;54543;50.712;6.070;2023-07-29T10:40:45;8.50;;;4.70;;
67747;SDS011;54543;50.712;6.070;2023-07-29T10:43:11;5.22;;;3.47;;
67747;SDS011;54543;50.712;6.070;2023-07-29T10:45:41;4.63;;;3.03;;
67747;SDS011;54543;50.712;6.070;2023-07-29T10:48:10;5.50;;;3.53;;
67747;SDS011;54543;50.712;6.070;2023-07-29T10:50:37;4.72;;;3.17;;
67747;SDS011;54543;50.712;6.070;2023-07-29T10:53:03;4.85;;;3.33;;
67747;SDS011;54543;50.712;6.070;2023-07-29T10:55:30;6.28;;;3.53;;
67747;SDS011;54543;50.712;6.070;2023-07-29T10:58:05;4.18;;;2.55;;
67747;SDS011;54543;50.712;6.070;2023-07-29T11:00:31;5.10;;;3.65;;
67747;SDS011;54543;50.712;6.070;2023-07-29T11:03:05;5.85;;;3.00;;
67747;SDS011;54543;50.712;6.070;2023-07-29T11:05:42;3.72;;;2.20;;
67747;SDS011;54543;50.712;6.070;2023-07-29T11:13:26;4.40;;;2.30;;
67747;SDS011;54543;50.712;6.070;2023-07-29T11:15:53;3.78;;;2.50;;
67747;SDS011;54543;50.712;6.070;2023-07-29T11:18:20;5.15;;;2.40;;
67747;SDS011;54543;50.712;6.070;2023-07-29T11:20:46;6.53;;;4.05;;
67747;SDS011;54543;50.712;6.070;2023-07-29T11:23:13;5.80;;;3.20;;
67747;SDS011;54543;50.712;6.070;2023-07-29T11:25:38;3.00;;;2.10;;
67747;SDS011;54543;50.712;6.070;2023-07-29T11:28:04;5.40;;;3.20;;
67747;SDS011;54543;50.712;6.070;2023-07-29T11:30:30;5.38;;;3.10;;
67747;SDS011;54543;50.712;6.070;2023-07-29T11:32:56;4.75;;;2.65;;
67747;SDS011;54543;50.712;6.070;2023-07-29T11:35:22;3.80;;;2.13;;
67747;SDS011;54543;50.712;6.070;2023-07-29T11:37:49;3.85;;;2.10;;
67747;SDS011;54543;50.712;6.070;2023-07-29T11:40:19;3.97;;;2.58;;
67747;SDS011;54543;50.712;6.070;2023-07-29T11:42:47;2.80;;;1.92;;
67747;SDS011;54543;50.712;6.070;2023-07-29T11:45:15;3.45;;;2.30;;
67747;SDS011;54543;50.712;6.070;2023-07-29T11:47:41;2.25;;;1.80;;
67747;SDS011;54543;50.712;6.070;2023-07-29T11:50:08;2.95;;;1.77;;
67747;SDS011;54543;50.712;6.070;2023-07-29T11:52:35;3.28;;;1.70;;
67747;SDS011;54543;50.712;6.070;2023-07-29T11:55:02;2.55;;;2.03;;
67747;SDS011;54543;50.712;6.070;2023-07-29T11:57:29;2.47;;;1.73;;
67747;SDS011;54543;50.712;6.070;2023-07-29T11:59:59;5.30;;;3.13;;
67747;SDS011;54543;50.712;6.070;2023-07-29T12:02:28;2.63;;;1.90;;
67747;SDS011;54543;50.712;6.070;2023-07-29T12:04:54;4.32;;;2.22;;
67747;SDS011;54543;50.712;6.070;2023-07-29T12:07:22;3.08;;;2.08;;
67747;SDS011;54543;50.712;6.070;2023-07-29T12:09:47;2.97;;;2.22;;
67747;SDS011;54543;50.712;6.070;2023-07-29T12:12:15;3.20;;;2.40;;
67747;SDS011;54543;50.712;6.070;2023-07-29T12:14:45;3.55;;;2.65;;
67747;SDS011;54543;50.712;6.070;2023-07-29T12:17:11;3.42;;;2.55;;
67747;SDS011;54543;50.712;6.070;2023-07-29T12:19:38;3.95;;;2.65;;
67747;SDS011;54543;50.712;6.070;2023-07-29T12:22:06;3.28;;;2.30;;
67747;SDS011;54543;50.712;6.070;2023-07-29T12:24:33;5.43;;;4.22;;
67747;SDS011;54543;50.712;6.070;2023-07-29T12:27:01;3.33;;;2.50;;
67747;SDS011;54543;50.712;6.070;2023-07-29T12:29:26;3.42;;;2.42;;
67747;SDS011;54543;50.712;6.070;2023-07-29T12:32:01;2.25;;;1.73;;
67747;SDS011;54543;50.712;6.070;2023-07-29T12:34:28;3.05;;;2.10;;
67747;SDS011;54543;50.712;6.070;2023-07-29T12:36:56;3.25;;;2.13;;
67747;SDS011;54543;50.712;6.070;2023-07-29T12:41:54;3.25;;;2.10;;
67747;SDS011;54543;50.712;6.070;2023-07-29T12:44:22;3.20;;;2.13;;
67747;SDS011;54543;50.712;6.070;2023-07-29T12:46:48;3.10;;;1.73;;
67747;SDS011;54543;50.712;6.070;2023-07-29T12:49:14;3.83;;;2.53;;
67747;SDS011;54543;50.712;6.070;2023-07-29T12:51:40;3.67;;;2.78;;
67747;SDS011;54543;50.712;6.070;2023-07-29T12:54:06;7.82;;;5.13;;
67747;SDS011;54543;50.712;6.070;2023-07-29T12:56:32;4.75;;;2.80;;
67747;SDS011;54543;50.712;6.070;2023-07-29T12:58:58;3.63;;;2.60;;
67747;SDS011;54543;50.712;6.070;2023-07-29T13:01:24;5.72;;;3.90;;
67747;SDS011;54543;50.712;6.070;2023-07-29T13:03:50;3.10;;;2.20;;
67747;SDS011;54543;50.712;6.070;2023-07-29T13:06:16;2.65;;;2.08;;
67747;SDS011;54543;50.712;6.070;2023-07-29T13:08:42;2.03;;;1.65;;
67747;SDS011;54543;50.712;6.070;2023-07-29T13:11:08;2.03;;;1.40;;
67747;SDS011;54543;50.712;6.070;2023-07-29T13:13:33;2.50;;;1.88;;
67747;SDS011;54543;50.712;6.070;2023-07-29T13:15:59;5.45;;;2.13;;
67747;SDS011;54543;50.712;6.070;2023-07-29T13:18:25;57.92;;;4.82;;
67747;SDS011;54543;50.712;6.070;2023-07-29T13:20:50;7.03;;;1.70;;
67747;SDS011;54543;50.712;6.070;2023-07-29T13:23:16;3.08;;;1.42;;
67747;SDS011;54543;50.712;6.070;2023-07-29T13:25:42;1.92;;;1.55;;
67747;SDS011;54543;50.712;6.070;2023-07-29T13:28:10;4.82;;;3.00;;
67747;SDS011;54543;50.712;6.070;2023-07-29T13:30:38;4.68;;;2.15;;
67747;SDS011;54543;50.712;6.070;2023-07-29T13:33:07;2.55;;;1.80;;
67747;SDS011;54543;50.712;6.070;2023-07-29T13:35:33;3.33;;;1.83;;
67747;SDS011;54543;50.712;6.070;2023-07-29T13:37:58;2.65;;;1.70;;
67747;SDS011;54543;50.712;6.070;2023-07-29T13:40:24;2.53;;;1.85;;
67747;SDS011;54543;50.712;6.070;2023-07-29T13:42:50;1.88;;;1.40;;
67747;SDS011;54543;50.712;6.070;2023-07-29T13:45:16;1.98;;;1.48;;
67747;SDS011;54543;50.712;6.070;2023-07-29T13:47:42;2.40;;;1.60;;
67747;SDS011;54543;50.712;6.070;2023-07-29T13:50:08;2.20;;;1.40;;
67747;SDS011;54543;50.712;6.070;2023-07-29T13:52:33;2.15;;;1.50;;
67747;SDS011;54543;50.712;6.070;2023-07-29T13:54:59;2.67;;;1.90;;
67747;SDS011;54543;50.712;6.070;2023-07-29T13:57:25;2.42;;;1.50;;
67747;SDS011;54543;50.712;6.070;2023-07-29T13:59:50;2.75;;;1.90;;
67747;SDS011;54543;50.712;6.070;2023-07-29T14:02:16;3.28;;;1.63;;
67747;SDS011;54543;50.712;6.070;2023-07-29T14:04:41;3.00;;;1.90;;
67747;SDS011;54543;50.712;6.070;2023-07-29T14:07:07;3.13;;;1.60;;
67747;SDS011;54543;50.712;6.070;2023-07-29T14:09:33;3.00;;;1.70;;
67747;SDS011;54543;50.712;6.070;2023-07-29T14:11:58;2.33;;;1.90;;
67747;SDS011;54543;50.712;6.070;2023-07-29T14:14:23;3.15;;;2.03;;
67747;SDS011;54543;50.712;6.070;2023-07-29T14:16:49;3.47;;;2.33;;
67747;SDS011;54543;50.712;6.070;2023-07-29T14:19:14;11.07;;;7.32;;
67747;SDS011;54543;50.712;6.070;2023-07-29T14:21:40;4.70;;;3.30;;
67747;SDS011;54543;50.712;6.070;2023-07-29T14:24:05;4.05;;;3.10;;
67747;SDS011;54543;50.712;6.070;2023-07-29T14:26:31;8.65;;;3.05;;
67747;SDS011;54543;50.712;6.070;2023-07-29T14:28:57;3.38;;;2.58;;
67747;SDS011;54543;50.712;6.070;2023-07-29T14:31:22;3.65;;;2.50;;
67747;SDS011;54543;50.712;6.070;2023-07-29T14:33:48;3.35;;;2.38;;
67747;SDS011;54543;50.712;6.070;2023-07-29T14:36:17;4.05;;;2.67;;
67747;SDS011;54543;50.712;6.070;2023-07-29T14:38:42;3.13;;;2.03;;
67747;SDS011;54543;50.712;6.070;2023-07-29T14:41:08;2.95;;;2.13;;
67747;SDS011;54543;50.712;6.070;2023-07-29T14:43:34;4.15;;;2.22;;
67747;SDS011;54543;50.712;6.070;2023-07-29T14:46:00;3.15;;;2.58;;
67747;SDS011;54543;50.712;6.070;2023-07-29T14:48:26;4.07;;;2.20;;
67747;SDS011;54543;50.712;6.070;2023-07-29T14:50:52;2.17;;;1.70;;
67747;SDS011;54543;50.712;6.070;2023-07-29T14:53:18;3.92;;;1.90;;
67747;SDS011;54543;50.712;6.070;2023-07-29T14:55:43;2.55;;;1.88;;
67747;SDS011;54543;50.712;6.070;2023-07-29T14:58:09;2.28;;;1.75;;